Saturday, November 18, 2017, 12:09 PM GMT
Back to Local

CWBZ, St Anicet

Location: , , Canada Lat: 45.117
Local Time: 12:09 PM GMT (12:09 GMT) Lon: -74.283
Time Zone: GMT Elev: 160 ft

Show me the last for .
Show Coded

Time T Td Feel RH Dir Speed Gust Alt SLP Vis Weather Sky Remarks
2017-11-18 11:00 25 18 17 74 60° 7 - - 29.86 0 None
2017-11-18 09:00 23 18 17 81 80° 5 - - 29.95 0 None
2017-11-18 08:00 22 18 - 84 120° 2 - - 29.98 0 None
2017-11-18 07:00 20 16 - 82 100° 1 - - 30.01 0 None
2017-11-18 06:00 20 16 - 86 130° 1 - - 30.01 0 None
2017-11-18 05:00 22 17 - 79 180° 2 - - 30.03 0 None
2017-11-18 04:00 20 15 - 80 230° 2 - - 30.06 0 None
2017-11-18 03:00 21 15 16 76 240° 3 - - 30.08 0 None
2017-11-18 02:00 23 14 - 69 240° 2 - - 30.09 0 None
2017-11-18 01:00 24 15 20 68 220° 3 - - 30.11 0 None
2017-11-18 00:00 26 15 21 62 260° 5 - - 30.11 0 None
2017-11-17 23:00 28 15 20 58 260° 8 - - 30.14 0 None
2017-11-17 22:00 28 15 20 56 260° 8 - - 30.12 0 None
2017-11-17 21:00 29 15 21 54 270° 9 - - 30.12 0 None
2017-11-17 20:00 30 15 19 53 270° 10 17 - 30.11 0 Peak wind: 20 mph (18 kts) from 280° at 00 min
2017-11-17 19:00 30 15 16 53 270° 14 24 - 30.11 0 Peak wind: 25 mph (22 kts) from 260° at 49 min
2017-11-17 18:00 29 16 16 56 270° 14 21 - 30.11 0 Peak wind: 21 mph (19 kts) from 260° at 39 min
2017-11-17 17:00 29 17 15 62 260° 14 21 - 30.12 0 Peak wind: 21 mph (19 kts) from 250° at 37 min
2017-11-17 15:00 27 18 13 69 290° 13 18 - 30.14 0 Peak wind: 19 mph (17 kts) from 270° at 10 min
2017-11-17 13:00 28 20 15 71 280° 10 18 - 30.13 0 Peak wind: 20 mph (18 kts) from 300° at 07 min

Support USWX by starting your Amazon purchase here.